createdAt,value
2018-02-11T00:00:48.398Z,69.33
2018-02-11T00:03:15.942Z,69.13
2018-02-11T00:05:44.632Z,67.33
2018-02-11T00:08:12.897Z,62.87
2018-02-11T00:10:40.457Z,78.30
2018-02-11T00:13:08.040Z,68.20
2018-02-11T00:15:35.580Z,73.03
2018-02-11T00:18:03.143Z,68.27
2018-02-11T00:20:30.686Z,70.27
2018-02-11T00:22:58.239Z,67.13
2018-02-11T00:25:26.546Z,67.03
2018-02-11T00:27:54.159Z,72.13
2018-02-11T00:30:21.686Z,67.47
2018-02-11T00:32:49.223Z,65.87
2018-02-11T00:35:16.793Z,60.27
2018-02-11T00:40:41.128Z,63.37
2018-02-11T00:43:08.646Z,70.77
2018-02-11T00:45:36.210Z,64.73
2018-02-11T00:48:03.768Z,63.73
2018-02-11T00:50:31.290Z,60.40
2018-02-11T00:52:58.824Z,65.17
2018-02-11T00:55:26.375Z,65.03
2018-02-11T00:57:54.039Z,65.87
2018-02-11T01:00:21.556Z,62.00
2018-02-11T01:02:49.081Z,63.53
2018-02-11T01:05:16.582Z,69.93
2018-02-11T01:07:44.086Z,76.30
2018-02-11T01:10:11.649Z,67.80
2018-02-11T01:12:39.168Z,63.20
2018-02-11T01:15:06.697Z,69.03
2018-02-11T01:17:34.987Z,70.83
2018-02-11T01:20:02.508Z,71.73
2018-02-11T01:22:30.012Z,76.23
2018-02-11T01:24:57.555Z,72.70
2018-02-11T01:27:25.063Z,77.67
2018-02-11T01:29:52.570Z,66.47
2018-02-11T01:32:20.843Z,64.97
2018-02-11T01:34:49.118Z,69.43
2018-02-11T01:37:17.391Z,64.43
2018-02-11T01:39:45.669Z,66.87
2018-02-11T01:42:13.984Z,70.80
2018-02-11T01:44:41.488Z,59.97
2018-02-11T01:47:09.010Z,60.90
2018-02-11T01:49:36.526Z,66.63
2018-02-11T01:52:04.822Z,66.70
2018-02-11T01:54:32.345Z,64.77
2018-02-11T01:56:59.860Z,63.13
2018-02-11T01:59:27.366Z,65.97
2018-02-11T02:01:55.652Z,67.37
2018-02-11T02:04:23.919Z,68.30
2018-02-11T02:06:52.194Z,62.50
2018-02-11T02:09:20.479Z,60.93
2018-02-11T02:11:48.750Z,66.60
2018-02-11T02:14:17.031Z,60.57
2018-02-11T02:16:45.318Z,61.13
2018-02-11T02:19:12.836Z,57.50
2018-02-11T02:21:40.342Z,65.13
2018-02-11T02:24:07.880Z,67.53
2018-02-11T02:26:36.155Z,64.60
2018-02-11T02:29:04.446Z,69.37
2018-02-11T02:31:32.734Z,66.07
2018-02-11T02:34:00.236Z,67.47
2018-02-11T02:36:27.750Z,57.30
2018-02-11T02:38:55.270Z,64.10
2018-02-11T02:41:22.824Z,60.03
2018-02-11T02:43:50.357Z,64.47
2018-02-11T02:46:17.903Z,63.57
2018-02-11T02:48:45.426Z,59.83
2018-02-11T02:51:12.937Z,68.40
2018-02-11T02:53:40.456Z,64.47
2018-02-11T02:56:07.979Z,64.23
2018-02-11T02:58:35.501Z,59.17
2018-02-11T03:01:03.065Z,63.90
2018-02-11T03:03:30.578Z,67.30
2018-02-11T03:05:58.853Z,61.33
2018-02-11T03:08:27.136Z,62.53
2018-02-11T03:10:55.410Z,61.63
2018-02-11T03:13:23.683Z,62.77
2018-02-11T03:15:51.980Z,60.87
2018-02-11T03:18:19.510Z,70.40
2018-02-11T03:20:47.021Z,64.67
2018-02-11T03:23:14.544Z,70.40
2018-02-11T03:25:42.072Z,65.30
2018-02-11T03:28:09.586Z,71.80
2018-02-11T03:30:37.115Z,65.63
2018-02-11T03:33:04.639Z,70.57
2018-02-11T03:35:32.142Z,72.03
2018-02-11T03:37:59.660Z,62.67
2018-02-11T03:40:27.169Z,64.00
2018-02-11T03:42:54.682Z,65.13
2018-02-11T03:45:22.212Z,65.90
2018-02-11T03:47:49.733Z,60.10
2018-02-11T03:50:17.254Z,64.40
2018-02-11T03:52:44.786Z,66.93
2018-02-11T03:55:12.319Z,66.47
2018-02-11T03:57:39.832Z,65.43
2018-02-11T04:00:07.357Z,67.67
2018-02-11T04:02:34.882Z,63.83
2018-02-11T04:05:02.404Z,65.60
2018-02-11T04:07:29.913Z,71.47
2018-02-11T04:09:57.434Z,64.13
2018-02-11T04:12:24.948Z,67.63
2018-02-11T04:14:52.479Z,68.53
2018-02-11T04:17:20.009Z,68.43
2018-02-11T04:19:47.524Z,66.33
2018-02-11T04:22:15.041Z,72.20
2018-02-11T04:24:43.340Z,65.30
2018-02-11T04:27:10.864Z,66.57
2018-02-11T04:29:38.387Z,67.07
2018-02-11T04:32:05.892Z,60.50
2018-02-11T04:34:34.167Z,68.70
2018-02-11T04:37:01.680Z,66.20
2018-02-11T04:39:29.976Z,63.50
2018-02-11T04:41:57.484Z,64.33
2018-02-11T04:44:25.007Z,64.83
2018-02-11T04:46:52.512Z,64.10
2018-02-11T04:49:20.032Z,68.73
2018-02-11T04:51:48.348Z,63.00
2018-02-11T04:54:15.855Z,66.30
2018-02-11T04:56:43.373Z,65.07
2018-02-11T04:59:10.891Z,61.83
2018-02-11T05:01:39.183Z,71.50
2018-02-11T05:04:06.684Z,70.70
2018-02-11T05:06:34.196Z,69.53
2018-02-11T05:09:01.722Z,67.77
2018-02-11T05:11:29.236Z,67.83
2018-02-11T05:13:56.804Z,71.33
2018-02-11T05:16:24.328Z,69.67
2018-02-11T05:18:52.636Z,67.10
2018-02-11T05:21:20.212Z,75.83
2018-02-11T05:23:47.804Z,69.70
2018-02-11T05:26:15.359Z,70.23
2018-02-11T05:28:42.904Z,71.40
2018-02-11T05:31:11.226Z,69.90
2018-02-11T05:33:38.772Z,74.53
2018-02-11T05:36:07.076Z,68.57
2018-02-11T05:38:34.594Z,75.63
2018-02-11T05:41:02.136Z,78.03
2018-02-11T05:43:29.707Z,70.87
2018-02-11T05:45:57.238Z,70.67
2018-02-11T05:48:24.798Z,71.77
2018-02-11T05:50:52.364Z,80.00
2018-02-11T05:53:19.901Z,76.63
2018-02-11T05:55:47.432Z,79.70
2018-02-11T05:58:15.028Z,75.97
2018-02-11T06:00:42.554Z,73.17
2018-02-11T06:03:10.104Z,75.17
2018-02-11T06:05:38.412Z,74.57
2018-02-11T06:08:05.971Z,74.00
2018-02-11T06:10:33.521Z,76.63
2018-02-11T06:13:01.100Z,75.70
2018-02-11T06:15:28.632Z,67.23
2018-02-11T06:17:56.172Z,76.00
2018-02-11T06:20:23.722Z,77.83
2018-02-11T06:22:52.026Z,77.33
2018-02-11T06:25:19.586Z,69.37
2018-02-11T06:27:47.130Z,70.27
2018-02-11T06:30:14.659Z,77.60
2018-02-11T06:32:42.179Z,77.80
2018-02-11T06:35:09.763Z,73.47
2018-02-11T06:37:37.430Z,77.40
2018-02-11T06:40:04.962Z,76.10
2018-02-11T06:42:32.526Z,78.30
2018-02-11T06:45:00.070Z,81.73
2018-02-11T06:47:27.627Z,75.10
2018-02-11T06:49:55.176Z,82.03
2018-02-11T06:52:22.716Z,75.30
2018-02-11T06:54:50.294Z,86.57
2018-02-11T06:57:18.642Z,85.33
2018-02-11T06:59:46.175Z,76.80
2018-02-11T07:02:13.734Z,83.03
2018-02-11T07:04:41.266Z,77.80
2018-02-11T07:07:08.782Z,85.43
2018-02-11T07:09:37.514Z,78.60
2018-02-11T07:12:05.059Z,80.63
2018-02-11T07:14:33.364Z,83.03
2018-02-11T07:17:00.901Z,79.67
2018-02-11T07:19:28.459Z,81.27
2018-02-11T07:21:55.991Z,79.57
2018-02-11T07:24:23.537Z,103.50
2018-02-11T07:26:51.098Z,120.70
2018-02-11T07:29:19.471Z,93.63
2018-02-11T07:31:47.009Z,110.10
2018-02-11T07:34:14.586Z,80.27
2018-02-11T07:36:42.119Z,79.83
2018-02-11T07:39:09.664Z,77.40
2018-02-11T07:41:37.231Z,78.47
2018-02-11T07:44:04.804Z,76.10
2018-02-11T07:46:33.113Z,73.07
2018-02-11T07:49:00.701Z,75.40
2018-02-11T07:51:29.009Z,84.33
2018-02-11T07:53:56.559Z,86.03
2018-02-11T07:56:24.101Z,75.00
2018-02-11T07:58:52.406Z,79.50
2018-02-11T08:01:21.211Z,77.50
2018-02-11T08:03:48.743Z,77.47
2018-02-11T08:06:16.292Z,77.47
2018-02-11T08:08:43.832Z,81.43
2018-02-11T08:11:12.152Z,70.40
2018-02-11T08:13:39.725Z,80.43
2018-02-11T08:16:07.243Z,78.77
2018-02-11T08:18:34.780Z,73.63
2018-02-11T08:21:02.314Z,77.80
2018-02-11T08:23:29.864Z,75.33
2018-02-11T08:25:57.426Z,81.23
2018-02-11T08:28:24.962Z,74.97
2018-02-11T08:30:52.494Z,82.30
2018-02-11T08:33:20.818Z,74.50
2018-02-11T08:35:48.380Z,73.00
2018-02-11T08:38:15.914Z,76.90
2018-02-11T08:40:43.462Z,70.83
2018-02-11T08:43:11.010Z,72.27
2018-02-11T08:45:38.535Z,76.87
2018-02-11T08:48:06.082Z,75.50
2018-02-11T08:50:33.614Z,75.60
2018-02-11T08:53:01.183Z,72.83
2018-02-11T08:55:28.740Z,77.43
2018-02-11T08:57:56.274Z,78.47
2018-02-11T09:00:23.816Z,71.23
2018-02-11T09:02:52.183Z,74.93
2018-02-11T09:05:19.764Z,69.37
2018-02-11T09:07:47.298Z,73.03
2018-02-11T09:10:14.841Z,69.60
2018-02-11T09:12:42.418Z,69.53
2018-02-11T09:15:09.952Z,77.57
2018-02-11T09:17:37.495Z,74.03
2018-02-11T09:20:05.032Z,66.97
2018-02-11T09:22:32.579Z,65.23
2018-02-11T09:25:00.148Z,60.00
2018-02-11T09:27:27.692Z,67.07
2018-02-11T09:29:55.990Z,66.93
2018-02-11T09:32:23.542Z,65.03
2018-02-11T09:34:51.093Z,65.70
2018-02-11T09:37:18.622Z,63.13
2018-02-11T09:39:46.173Z,60.03
2018-02-11T09:42:13.688Z,66.03
2018-02-11T09:44:41.194Z,66.53
2018-02-11T09:47:08.739Z,68.40
2018-02-11T09:49:36.270Z,56.20
2018-02-11T09:52:03.807Z,65.43
2018-02-11T09:54:32.110Z,65.80
2018-02-11T09:56:59.629Z,59.93
2018-02-11T09:59:27.166Z,63.30
2018-02-11T10:01:54.700Z,58.47
2018-02-11T10:04:22.256Z,56.43
2018-02-11T10:06:49.729Z,55.77
2018-02-11T10:09:17.236Z,64.87
2018-02-11T10:11:45.512Z,56.90
2018-02-11T10:14:13.788Z,50.60
2018-02-11T10:16:41.302Z,48.43
2018-02-11T10:19:08.830Z,56.53
2018-02-11T10:21:36.366Z,45.60
2018-02-11T10:24:03.908Z,44.13
2018-02-11T10:26:32.187Z,43.87
2018-02-11T10:28:59.687Z,48.03
2018-02-11T10:31:27.210Z,45.63
2018-02-11T10:33:55.494Z,50.97
2018-02-11T10:36:23.768Z,54.90
2018-02-11T10:38:52.046Z,51.83
2018-02-11T10:41:20.318Z,47.87
2018-02-11T10:43:48.601Z,48.47
2018-02-11T10:46:16.880Z,47.60
2018-02-11T10:48:45.167Z,43.60
2018-02-11T10:51:12.680Z,46.97
2018-02-11T10:53:40.220Z,42.67
2018-02-11T10:56:07.722Z,46.47
2018-02-11T10:58:35.998Z,45.87
2018-02-11T11:01:04.276Z,47.37
2018-02-11T11:03:32.554Z,46.43
2018-02-11T11:06:00.830Z,41.10
2018-02-11T11:08:29.172Z,41.77
2018-02-11T11:10:56.671Z,41.37
2018-02-11T11:13:24.935Z,36.47
2018-02-11T11:15:52.447Z,45.67
2018-02-11T11:18:19.951Z,47.17
2018-02-11T11:20:47.450Z,42.40
2018-02-11T11:23:14.992Z,45.63
2018-02-11T11:25:42.524Z,43.27
2018-02-11T11:28:10.102Z,47.83
2018-02-11T11:30:37.606Z,44.83
2018-02-11T11:33:05.119Z,45.93
2018-02-11T11:35:32.621Z,43.17
2018-02-11T11:38:00.132Z,41.90
2018-02-11T11:40:27.641Z,43.77
2018-02-11T11:42:55.150Z,42.93
2018-02-11T11:45:23.433Z,41.60
2018-02-11T11:47:50.963Z,42.20
2018-02-11T11:50:18.458Z,40.00
2018-02-11T11:52:45.986Z,43.90
2018-02-11T11:55:13.493Z,40.40
2018-02-11T11:57:41.027Z,39.60
2018-02-11T12:00:08.543Z,46.43
2018-02-11T12:02:36.050Z,44.40
2018-02-11T12:05:03.575Z,48.00
2018-02-11T12:07:31.122Z,83.23
2018-02-11T12:09:58.630Z,63.73
2018-02-11T12:12:26.144Z,49.33
2018-02-11T12:14:53.664Z,47.87
2018-02-11T12:17:21.180Z,64.93
2018-02-11T12:19:49.452Z,47.20
2018-02-11T12:22:17.772Z,46.87
2018-02-11T12:24:45.278Z,39.53
2018-02-11T12:27:12.772Z,37.67
2018-02-11T12:29:40.296Z,38.17
2018-02-11T12:32:07.837Z,39.60
2018-02-11T12:34:35.326Z,44.90
2018-02-11T12:37:02.864Z,40.30
2018-02-11T12:39:30.435Z,41.17
2018-02-11T12:41:57.954Z,42.13
2018-02-11T12:44:25.522Z,39.97
2018-02-11T12:46:53.033Z,41.90
2018-02-11T12:49:20.553Z,47.37
2018-02-11T12:51:48.124Z,43.37
2018-02-11T12:54:15.630Z,48.17
2018-02-11T12:56:43.144Z,39.67
2018-02-11T12:59:11.453Z,38.47
2018-02-11T13:01:39.001Z,37.13
2018-02-11T13:04:06.476Z,35.67
2018-02-11T13:06:34.016Z,34.47
2018-02-11T13:09:02.296Z,35.23
2018-02-11T13:11:30.588Z,36.43
2018-02-11T13:13:58.115Z,35.73
2018-02-11T13:16:25.657Z,33.27
2018-02-11T13:18:53.224Z,41.10
2018-02-11T13:21:20.766Z,29.43
2018-02-11T13:23:48.320Z,31.60
2018-02-11T13:26:15.881Z,30.23
2018-02-11T13:28:43.452Z,31.17
2018-02-11T13:31:10.980Z,30.77
2018-02-11T13:33:38.524Z,27.07
2018-02-11T13:36:06.079Z,25.70
2018-02-11T13:38:33.618Z,26.03
2018-02-11T13:41:01.955Z,29.23
2018-02-11T13:43:29.519Z,29.80
2018-02-11T13:45:57.069Z,29.77
2018-02-11T13:48:24.643Z,29.07
2018-02-11T13:50:52.217Z,34.67
2018-02-11T13:53:19.783Z,35.00
2018-02-11T13:55:48.105Z,31.37
2018-02-11T13:58:15.666Z,31.20
2018-02-11T14:00:43.232Z,30.77
2018-02-11T14:03:10.769Z,31.83
2018-02-11T14:05:38.315Z,35.27
2018-02-11T14:08:05.856Z,33.10
2018-02-11T14:10:33.364Z,37.50
2018-02-11T14:13:00.931Z,35.03
2018-02-11T14:15:28.480Z,32.53
2018-02-11T14:17:56.012Z,32.73
2018-02-11T14:20:24.320Z,40.37
2018-02-11T14:22:51.867Z,39.03
2018-02-11T14:25:19.426Z,35.90
2018-02-11T14:27:46.978Z,38.03
2018-02-11T14:30:14.516Z,37.00
2018-02-11T14:32:42.079Z,35.27
2018-02-11T14:35:09.698Z,38.30
2018-02-11T14:37:37.225Z,33.63
2018-02-11T14:40:04.759Z,35.83
2018-02-11T14:42:33.062Z,32.60
2018-02-11T14:45:00.604Z,32.37
2018-02-11T14:47:28.139Z,35.27
2018-02-11T14:49:55.686Z,38.00
2018-02-11T14:52:23.213Z,32.93
2018-02-11T14:54:50.735Z,42.20
2018-02-11T14:57:19.045Z,39.23
2018-02-11T14:59:46.571Z,38.17
2018-02-11T15:02:14.112Z,35.47
2018-02-11T15:04:41.657Z,31.63
2018-02-11T15:07:09.200Z,34.53
2018-02-11T15:09:36.729Z,38.73
2018-02-11T15:12:04.304Z,31.50
2018-02-11T15:14:31.836Z,40.43
2018-02-11T15:16:59.374Z,34.50
2018-02-11T15:19:26.927Z,36.37
2018-02-11T15:21:54.457Z,40.13
2018-02-11T15:24:21.987Z,37.63
2018-02-11T15:26:49.549Z,40.43
2018-02-11T15:29:17.087Z,41.60
2018-02-11T15:31:44.630Z,42.90
2018-02-11T15:34:12.963Z,42.10
2018-02-11T15:36:40.504Z,41.17
2018-02-11T15:39:08.033Z,43.47
2018-02-11T15:41:36.335Z,46.30
2018-02-11T15:44:03.887Z,41.57
2018-02-11T15:46:31.419Z,47.47
2018-02-11T15:48:59.728Z,44.57
2018-02-11T15:51:27.267Z,48.23
2018-02-11T15:53:55.647Z,45.43
2018-02-11T15:56:23.958Z,41.60
2018-02-11T15:58:51.491Z,45.43
2018-02-11T16:01:19.035Z,41.50
2018-02-11T16:03:47.355Z,41.33
2018-02-11T16:06:14.899Z,40.77
2018-02-11T16:08:42.442Z,40.57
2018-02-11T16:11:10.005Z,38.90
2018-02-11T16:13:37.549Z,41.87
2018-02-11T16:16:05.860Z,41.73
2018-02-11T16:18:33.570Z,38.30
2018-02-11T16:21:01.098Z,38.47
2018-02-11T16:23:28.635Z,41.10
2018-02-11T16:25:56.182Z,39.80
2018-02-11T16:28:23.781Z,42.97
2018-02-11T16:30:51.311Z,43.50
2018-02-11T16:33:18.844Z,35.60
2018-02-11T16:35:47.145Z,40.80
2018-02-11T16:38:14.711Z,48.60
2018-02-11T16:40:42.262Z,44.70
2018-02-11T16:43:09.824Z,41.53
2018-02-11T16:45:37.353Z,45.70
2018-02-11T16:48:04.897Z,58.97
2018-02-11T16:50:32.441Z,49.07
2018-02-11T16:52:59.971Z,50.40
2018-02-11T16:55:27.543Z,42.67
2018-02-11T16:57:55.060Z,39.63
2018-02-11T17:00:23.351Z,42.93
2018-02-11T17:02:50.976Z,43.93
2018-02-11T17:05:18.441Z,39.50
2018-02-11T17:07:45.986Z,43.17
2018-02-11T17:10:13.527Z,40.70
2018-02-11T17:12:41.067Z,43.93
2018-02-11T17:15:08.583Z,40.50
2018-02-11T17:17:36.230Z,52.00
2018-02-11T17:20:03.819Z,55.73
2018-02-11T17:22:31.365Z,51.20
2018-02-11T17:24:58.911Z,44.87
2018-02-11T17:27:26.447Z,40.27
2018-02-11T17:29:53.993Z,46.50
2018-02-11T17:32:21.533Z,43.17
2018-02-11T17:34:49.075Z,44.77
2018-02-11T17:37:16.618Z,45.40
2018-02-11T17:39:44.937Z,40.93
2018-02-11T17:42:12.491Z,42.97
2018-02-11T17:44:40.031Z,42.20
2018-02-11T17:47:07.639Z,41.13
2018-02-11T17:49:35.206Z,39.73
2018-02-11T17:52:02.723Z,39.80
2018-02-11T17:54:30.261Z,37.90
2018-02-11T17:56:58.559Z,43.17
2018-02-11T17:59:26.109Z,45.37
2018-02-11T18:01:53.668Z,42.73
2018-02-11T18:04:21.963Z,39.27
2018-02-11T18:06:49.493Z,38.57
2018-02-11T18:09:17.041Z,40.47
2018-02-11T18:11:45.347Z,43.27
2018-02-11T18:14:12.877Z,39.00
2018-02-11T18:16:40.441Z,38.03
2018-02-11T18:19:07.997Z,39.50
2018-02-11T18:21:35.529Z,35.70
2018-02-11T18:24:03.083Z,35.70
2018-02-11T18:26:30.627Z,51.60
2018-02-11T18:28:58.155Z,41.37
2018-02-11T18:31:26.445Z,40.67
2018-02-11T18:33:53.959Z,35.17
2018-02-11T18:36:21.463Z,37.73
2018-02-11T18:38:48.989Z,40.83
2018-02-11T18:41:16.488Z,40.47
2018-02-11T18:43:43.993Z,37.53
2018-02-11T18:46:11.509Z,54.20
2018-02-11T18:48:39.017Z,44.70
2018-02-11T18:51:07.339Z,39.07
2018-02-11T18:53:34.882Z,37.77
2018-02-11T18:56:02.407Z,37.93
2018-02-11T18:58:29.933Z,40.67
2018-02-11T19:00:57.497Z,51.13
2018-02-11T19:03:25.030Z,39.90
2018-02-11T19:05:52.552Z,36.00
2018-02-11T19:08:20.090Z,38.93
2018-02-11T19:10:47.624Z,42.57
2018-02-11T19:13:15.135Z,36.90
2018-02-11T19:15:43.423Z,41.40
2018-02-11T19:18:10.983Z,37.60
2018-02-11T19:20:39.268Z,50.40
2018-02-11T19:23:06.835Z,38.43
2018-02-11T19:25:34.382Z,41.43
2018-02-11T19:28:01.923Z,46.20
2018-02-11T19:30:29.938Z,44.53
2018-02-11T19:32:57.492Z,51.43
2018-02-11T19:35:25.024Z,47.90
2018-02-11T19:37:52.575Z,56.90
2018-02-11T19:40:20.951Z,62.80
2018-02-11T19:42:48.467Z,63.37
2018-02-11T19:45:15.995Z,53.97
2018-02-11T19:47:43.507Z,54.87
2018-02-11T19:50:11.045Z,65.77
2018-02-11T19:52:38.547Z,68.93
2018-02-11T19:55:06.075Z,64.70
2018-02-11T19:57:33.586Z,70.20
2018-02-11T20:00:01.139Z,52.20
2018-02-11T20:02:28.697Z,50.73
2018-02-11T20:04:56.211Z,39.70
2018-02-11T20:07:23.864Z,37.83
2018-02-11T20:09:51.379Z,36.13
2018-02-11T20:12:18.887Z,35.87
2018-02-11T20:14:46.438Z,41.40
2018-02-11T20:17:13.936Z,41.43
2018-02-11T20:19:41.459Z,42.60
2018-02-11T20:22:08.981Z,50.97
2018-02-11T20:24:36.512Z,55.90
2018-02-11T20:27:04.041Z,49.80
2018-02-11T20:29:31.609Z,44.03
2018-02-11T20:31:59.141Z,40.20
2018-02-11T20:34:26.844Z,35.13
2018-02-11T20:36:54.372Z,41.03
2018-02-11T20:39:21.895Z,39.33
2018-02-11T20:41:49.428Z,41.83
2018-02-11T20:44:17.739Z,35.43
2018-02-11T20:46:45.254Z,42.07
2018-02-11T20:49:13.567Z,40.53
2018-02-11T20:51:41.139Z,40.63
2018-02-11T20:54:08.663Z,42.20
2018-02-11T20:56:36.215Z,43.37
2018-02-11T20:59:03.748Z,41.57
2018-02-11T21:01:31.267Z,41.83
2018-02-11T21:03:58.770Z,38.50
2018-02-11T21:06:26.345Z,42.13
2018-02-11T21:08:54.641Z,38.70
2018-02-11T21:11:22.163Z,42.80
2018-02-11T21:13:49.687Z,41.67
2018-02-11T21:16:17.339Z,43.57
2018-02-11T21:18:44.883Z,39.83
2018-02-11T21:21:13.179Z,38.23
2018-02-11T21:23:40.724Z,43.83
2018-02-11T21:26:08.309Z,38.00
2018-02-11T21:28:36.473Z,42.53
2018-02-11T21:31:04.011Z,39.33
2018-02-11T21:33:31.850Z,42.10
2018-02-11T21:35:59.518Z,46.87
2018-02-11T21:38:27.247Z,41.57
2018-02-11T21:40:55.192Z,43.73
2018-02-11T21:43:22.954Z,42.57
2018-02-11T21:45:50.511Z,43.50
2018-02-11T21:48:18.111Z,42.67
2018-02-11T21:50:45.630Z,48.20
2018-02-11T21:53:13.146Z,45.80
2018-02-11T21:55:40.654Z,51.17
2018-02-11T21:58:08.191Z,50.70
2018-02-11T22:00:36.473Z,48.37
2018-02-11T22:03:04.767Z,44.40
2018-02-11T22:05:32.286Z,44.23
2018-02-11T22:07:59.820Z,43.57
2018-02-11T22:10:27.337Z,44.40
2018-02-11T22:12:54.880Z,37.30
2018-02-11T22:15:23.165Z,41.93
2018-02-11T22:17:50.675Z,48.17
2018-02-11T22:20:18.221Z,42.37
2018-02-11T22:22:45.726Z,39.80
2018-02-11T22:25:13.243Z,41.63
2018-02-11T22:27:40.771Z,45.53
2018-02-11T22:30:08.284Z,39.97
2018-02-11T22:32:35.803Z,39.80
2018-02-11T22:35:03.330Z,42.33
2018-02-11T22:37:31.608Z,43.47
2018-02-11T22:39:59.118Z,48.23
2018-02-11T22:42:26.623Z,42.33
2018-02-11T22:44:54.895Z,46.37
2018-02-11T22:47:23.171Z,39.70
2018-02-11T22:49:51.457Z,38.73
2018-02-11T22:52:18.969Z,46.60
2018-02-11T22:54:46.471Z,44.33
2018-02-11T22:57:13.985Z,46.27
2018-02-11T22:59:41.498Z,44.03
2018-02-11T23:02:09.007Z,40.60
2018-02-11T23:04:36.521Z,38.47
2018-02-11T23:07:04.035Z,44.80
2018-02-11T23:09:31.549Z,42.90
2018-02-11T23:11:59.079Z,39.70
2018-02-11T23:14:26.590Z,44.17
2018-02-11T23:16:54.110Z,39.83
2018-02-11T23:19:21.628Z,40.90
2018-02-11T23:21:49.123Z,39.27
2018-02-11T23:24:16.644Z,41.17
2018-02-11T23:26:44.158Z,42.40
2018-02-11T23:29:11.675Z,44.30
2018-02-11T23:31:39.960Z,47.13
2018-02-11T23:34:08.232Z,44.20
2018-02-11T23:36:36.500Z,42.50
2018-02-11T23:39:04.008Z,39.07
2018-02-11T23:41:31.528Z,41.20
2018-02-11T23:43:59.047Z,40.57
2018-02-11T23:46:26.561Z,44.33
2018-02-11T23:48:54.099Z,45.00
2018-02-11T23:51:22.385Z,40.20
2018-02-11T23:53:49.901Z,40.87
2018-02-11T23:56:17.431Z,40.90
2018-02-11T23:58:44.930Z,46.90
